sensor_id;sensor_type;location;lat;lon;timestamp;temperature;humidity
38936;DHT22;25541;47.458;9.644;2022-11-06T05:05:25;3.70;99.90
38936;DHT22;25541;47.458;9.644;2022-11-06T05:07:51;3.70;99.90
38936;DHT22;25541;47.458;9.644;2022-11-06T05:10:17;3.70;99.90
38936;DHT22;25541;47.458;9.644;2022-11-06T05:12:42;3.60;99.90
38936;DHT22;25541;47.458;9.644;2022-11-06T05:15:08;3.60;99.90
38936;DHT22;25541;47.458;9.644;2022-11-06T05:17:34;3.60;99.90
38936;DHT22;25541;47.458;9.644;2022-11-06T05:19:59;3.60;99.90
38936;DHT22;25541;47.458;9.644;2022-11-06T05:22:25;3.60;99.90
38936;DHT22;25541;47.458;9.644;2022-11-06T05:25:09;3.60;99.90
38936;DHT22;25541;47.458;9.644;2022-11-06T05:27:35;3.50;99.90
38936;DHT22;25541;47.458;9.644;2022-11-06T05:30:01;3.50;99.90
38936;DHT22;25541;47.458;9.644;2022-11-06T05:32:26;3.50;99.90
38936;DHT22;25541;47.458;9.644;2022-11-06T05:34:52;3.50;99.90
38936;DHT22;25541;47.458;9.644;2022-11-06T05:37:17;3.50;99.90
38936;DHT22;25541;47.458;9.644;2022-11-06T05:39:43;3.50;99.90
38936;DHT22;25541;47.458;9.644;2022-11-06T05:42:09;3.50;99.90
38936;DHT22;25541;47.458;9.644;2022-11-06T05:44:34;3.50;99.90
38936;DHT22;25541;47.458;9.644;2022-11-06T05:47:00;3.50;99.90
38936;DHT22;25541;47.458;9.644;2022-11-06T05:49:26;3.40;99.90
38936;DHT22;25541;47.458;9.644;2022-11-06T05:51:51;3.40;99.90
38936;DHT22;25541;47.458;9.644;2022-11-06T05:54:17;3.40;99.90
38936;DHT22;25541;47.458;9.644;2022-11-06T05:56:42;3.40;99.90
38936;DHT22;25541;47.458;9.644;2022-11-06T05:59:08;3.40;99.90
38936;DHT22;25541;47.458;9.644;2022-11-06T06:01:34;3.40;99.90
38936;DHT22;25541;47.458;9.644;2022-11-06T06:04:00;3.40;99.90
38936;DHT22;25541;47.458;9.644;2022-11-06T06:06:26;3.40;99.90
38936;DHT22;25541;47.458;9.644;2022-11-06T06:08:51;3.30;99.90
38936;DHT22;25541;47.458;9.644;2022-11-06T06:11:17;3.30;99.90
38936;DHT22;25541;47.458;9.644;2022-11-06T06:13:43;3.30;99.90
38936;DHT22;25541;47.458;9.644;2022-11-06T06:16:08;3.20;99.90
38936;DHT22;25541;47.458;9.644;2022-11-06T06:18:34;3.30;99.90
38936;DHT22;25541;47.458;9.644;2022-11-06T06:21:00;3.30;99.90
38936;DHT22;25541;47.458;9.644;2022-11-06T06:23:25;3.30;99.90
38936;DHT22;25541;47.458;9.644;2022-11-06T06:25:51;3.30;99.90
38936;DHT22;25541;47.458;9.644;2022-11-06T06:28:17;3.30;99.90
38936;DHT22;25541;47.458;9.644;2022-11-06T06:30:42;3.40;99.90
38936;DHT22;25541;47.458;9.644;2022-11-06T06:33:09;3.40;99.90
38936;DHT22;25541;47.458;9.644;2022-11-06T06:35:34;3.40;99.90
38936;DHT22;25541;47.458;9.644;2022-11-06T06:38:00;3.50;99.90
38936;DHT22;25541;47.458;9.644;2022-11-06T06:40:26;3.60;99.90
38936;DHT22;25541;47.458;9.644;2022-11-06T06:42:55;3.60;99.90
38936;DHT22;25541;47.458;9.644;2022-11-06T06:45:22;3.60;99.90
38936;DHT22;25541;47.458;9.644;2022-11-06T06:47:47;3.70;99.90
38936;DHT22;25541;47.458;9.644;2022-11-06T06:50:13;3.90;99.90
38936;DHT22;25541;47.458;9.644;2022-11-06T06:52:39;4.20;99.90
38936;DHT22;25541;47.458;9.644;2022-11-06T06:55:05;5.70;99.90
38936;DHT22;25541;47.458;9.644;2022-11-06T06:57:31;7.20;99.90
38936;DHT22;25541;47.458;9.644;2022-11-06T06:59:56;8.20;95.70
38936;DHT22;25541;47.458;9.644;2022-11-06T07:02:22;8.70;91.30
38936;DHT22;25541;47.458;9.644;2022-11-06T07:04:47;9.10;89.90
38936;DHT22;25541;47.458;9.644;2022-11-06T07:07:13;9.90;85.90
38936;DHT22;25541;47.458;9.644;2022-11-06T07:09:39;10.30;84.70
38936;DHT22;25541;47.458;9.644;2022-11-06T07:12:04;10.80;81.10
38936;DHT22;25541;47.458;9.644;2022-11-06T07:14:30;10.80;79.10
38936;DHT22;25541;47.458;9.644;2022-11-06T07:16:56;11.70;79.70
38936;DHT22;25541;47.458;9.644;2022-11-06T07:19:22;13.20;72.80
38936;DHT22;25541;47.458;9.644;2022-11-06T07:21:50;13.80;69.80
38936;DHT22;25541;47.458;9.644;2022-11-06T07:24:16;14.00;68.40
38936;DHT22;25541;47.458;9.644;2022-11-06T07:26:43;14.30;65.80
38936;DHT22;25541;47.458;9.644;2022-11-06T07:29:08;14.40;64.90
38936;DHT22;25541;47.458;9.644;2022-11-06T07:31:34;14.40;64.50
38936;DHT22;25541;47.458;9.644;2022-11-06T07:34:00;14.80;64.40
38936;DHT22;25541;47.458;9.644;2022-11-06T07:36:25;14.80;62.30
38936;DHT22;25541;47.458;9.644;2022-11-06T07:38:51;14.90;63.00
38936;DHT22;25541;47.458;9.644;2022-11-06T07:41:17;14.50;62.90
38936;DHT22;25541;47.458;9.644;2022-11-06T07:43:42;14.50;62.50
38936;DHT22;25541;47.458;9.644;2022-11-06T07:46:10;15.10;63.50
38936;DHT22;25541;47.458;9.644;2022-11-06T07:48:37;15.10;61.80
38936;DHT22;25541;47.458;9.644;2022-11-06T07:51:06;14.60;63.00
38936;DHT22;25541;47.458;9.644;2022-11-06T07:53:32;13.80;64.70
38936;DHT22;25541;47.458;9.644;2022-11-06T07:55:58;13.50;66.90
38936;DHT22;25541;47.458;9.644;2022-11-06T07:58:24;13.20;66.70
38936;DHT22;25541;47.458;9.644;2022-11-06T08:00:55;13.20;66.30
38936;DHT22;25541;47.458;9.644;2022-11-06T08:03:22;13.10;67.10
38936;DHT22;25541;47.458;9.644;2022-11-06T08:05:48;13.30;67.20
38936;DHT22;25541;47.458;9.644;2022-11-06T08:08:13;13.90;66.90
38936;DHT22;25541;47.458;9.644;2022-11-06T08:10:39;15.80;62.60
38936;DHT22;25541;47.458;9.644;2022-11-06T08:13:09;17.60;57.00
38936;DHT22;25541;47.458;9.644;2022-11-06T08:15:36;19.20;54.70
38936;DHT22;25541;47.458;9.644;2022-11-06T08:18:03;20.00;52.70
38936;DHT22;25541;47.458;9.644;2022-11-06T08:20:29;20.20;51.50
38936;DHT22;25541;47.458;9.644;2022-11-06T08:23:01;20.90;47.90
38936;DHT22;25541;47.458;9.644;2022-11-06T08:25:29;22.00;47.30
38936;DHT22;25541;47.458;9.644;2022-11-06T08:27:56;22.00;45.30
38936;DHT22;25541;47.458;9.644;2022-11-06T08:30:22;22.60;46.30
38936;DHT22;25541;47.458;9.644;2022-11-06T08:32:48;23.50;46.00
38936;DHT22;25541;47.458;9.644;2022-11-06T08:35:14;23.80;44.00
38936;DHT22;25541;47.458;9.644;2022-11-06T08:37:39;23.60;42.40
38936;DHT22;25541;47.458;9.644;2022-11-06T08:40:06;23.80;43.50
38936;DHT22;25541;47.458;9.644;2022-11-06T08:42:31;22.90;43.60
38936;DHT22;25541;47.458;9.644;2022-11-06T08:44:57;21.60;44.80
38936;DHT22;25541;47.458;9.644;2022-11-06T08:47:23;20.50;46.10
38936;DHT22;25541;47.458;9.644;2022-11-06T08:49:48;19.50;47.60
38936;DHT22;25541;47.458;9.644;2022-11-06T08:52:14;18.70;48.30
38936;DHT22;25541;47.458;9.644;2022-11-06T08:54:40;18.70;50.60
38936;DHT22;25541;47.458;9.644;2022-11-06T08:57:05;18.60;48.60
38936;DHT22;25541;47.458;9.644;2022-11-06T08:59:31;18.30;49.70
38936;DHT22;25541;47.458;9.644;2022-11-06T09:01:57;18.00;51.40
38936;DHT22;25541;47.458;9.644;2022-11-06T09:04:23;17.10;52.50
38936;DHT22;25541;47.458;9.644;2022-11-06T09:06:49;16.60;54.90
38936;DHT22;25541;47.458;9.644;2022-11-06T09:09:14;16.40;56.10
38936;DHT22;25541;47.458;9.644;2022-11-06T09:11:40;15.70;56.70
38936;DHT22;25541;47.458;9.644;2022-11-06T09:14:06;15.30;59.10
38936;DHT22;25541;47.458;9.644;2022-11-06T09:16:31;15.10;58.40
38936;DHT22;25541;47.458;9.644;2022-11-06T09:18:57;15.20;59.50
38936;DHT22;25541;47.458;9.644;2022-11-06T09:21:23;15.50;58.80
38936;DHT22;25541;47.458;9.644;2022-11-06T09:23:49;15.60;58.00
38936;DHT22;25541;47.458;9.644;2022-11-06T09:26:15;15.30;60.20
38936;DHT22;25541;47.458;9.644;2022-11-06T09:28:41;15.40;58.00
38936;DHT22;25541;47.458;9.644;2022-11-06T09:31:07;15.80;57.10
38936;DHT22;25541;47.458;9.644;2022-11-06T09:33:34;16.70;55.70
38936;DHT22;25541;47.458;9.644;2022-11-06T09:36:03;18.10;54.40
38936;DHT22;25541;47.458;9.644;2022-11-06T09:38:29;18.70;51.70
38936;DHT22;25541;47.458;9.644;2022-11-06T09:41:00;19.30;52.90
38936;DHT22;25541;47.458;9.644;2022-11-06T09:43:36;19.20;50.40
38936;DHT22;25541;47.458;9.644;2022-11-06T09:46:25;18.80;52.00
38936;DHT22;25541;47.458;9.644;2022-11-06T09:49:03;18.30;53.00
38936;DHT22;25541;47.458;9.644;2022-11-06T09:51:37;19.00;50.60
38936;DHT22;25541;47.458;9.644;2022-11-06T09:57:32;21.50;46.90
38936;DHT22;25541;47.458;9.644;2022-11-06T10:00:01;23.40;44.50
38936;DHT22;25541;47.458;9.644;2022-11-06T10:03:04;24.00;43.70
38936;DHT22;25541;47.458;9.644;2022-11-06T10:05:34;24.50;40.70
38936;DHT22;25541;47.458;9.644;2022-11-06T10:08:04;24.60;41.50
38936;DHT22;25541;47.458;9.644;2022-11-06T10:21:44;19.40;51.50
38936;DHT22;25541;47.458;9.644;2022-11-06T10:24:22;18.40;54.10
38936;DHT22;25541;47.458;9.644;2022-11-06T10:26:51;17.50;56.80
38936;DHT22;25541;47.458;9.644;2022-11-06T10:29:39;16.90;57.70
38936;DHT22;25541;47.458;9.644;2022-11-06T10:34:47;15.90;60.50
38936;DHT22;25541;47.458;9.644;2022-11-06T10:37:23;15.40;61.60
38936;DHT22;25541;47.458;9.644;2022-11-06T10:39:51;15.00;64.30
38936;DHT22;25541;47.458;9.644;2022-11-06T10:42:21;14.70;64.10
38936;DHT22;25541;47.458;9.644;2022-11-06T10:45:03;14.40;65.00
38936;DHT22;25541;47.458;9.644;2022-11-06T10:47:37;14.20;66.20
38936;DHT22;25541;47.458;9.644;2022-11-06T10:50:08;14.10;67.50
38936;DHT22;25541;47.458;9.644;2022-11-06T10:53:14;13.90;67.60
38936;DHT22;25541;47.458;9.644;2022-11-06T10:55:47;13.60;68.10
38936;DHT22;25541;47.458;9.644;2022-11-06T10:58:27;13.50;67.90
38936;DHT22;25541;47.458;9.644;2022-11-06T11:01:05;13.50;68.60
38936;DHT22;25541;47.458;9.644;2022-11-06T11:03:35;13.40;68.60
38936;DHT22;25541;47.458;9.644;2022-11-06T11:06:01;13.50;67.80
38936;DHT22;25541;47.458;9.644;2022-11-06T11:08:39;13.50;69.10
38936;DHT22;25541;47.458;9.644;2022-11-06T11:13:42;13.30;68.70
38936;DHT22;25541;47.458;9.644;2022-11-06T11:16:16;13.40;69.10
38936;DHT22;25541;47.458;9.644;2022-11-06T11:18:44;13.50;69.40
38936;DHT22;25541;47.458;9.644;2022-11-06T11:21:13;13.40;69.40
38936;DHT22;25541;47.458;9.644;2022-11-06T11:23:40;13.40;69.70
38936;DHT22;25541;47.458;9.644;2022-11-06T11:28:39;13.20;70.70
38936;DHT22;25541;47.458;9.644;2022-11-06T11:31:15;13.10;71.60
38936;DHT22;25541;47.458;9.644;2022-11-06T11:33:53;13.10;72.30
38936;DHT22;25541;47.458;9.644;2022-11-06T11:36:19;13.00;72.40
38936;DHT22;25541;47.458;9.644;2022-11-06T11:38:45;12.80;72.70
38936;DHT22;25541;47.458;9.644;2022-11-06T11:43:43;12.60;73.30
38936;DHT22;25541;47.458;9.644;2022-11-06T11:46:20;12.60;73.90
38936;DHT22;25541;47.458;9.644;2022-11-06T11:48:49;12.40;73.80
38936;DHT22;25541;47.458;9.644;2022-11-06T11:51:36;12.30;75.00
38936;DHT22;25541;47.458;9.644;2022-11-06T11:56:49;12.10;76.10
38936;DHT22;25541;47.458;9.644;2022-11-06T11:59:27;12.10;75.20
38936;DHT22;25541;47.458;9.644;2022-11-06T12:01:56;12.00;76.00
38936;DHT22;25541;47.458;9.644;2022-11-06T12:04:30;12.00;76.50
38936;DHT22;25541;47.458;9.644;2022-11-06T12:07:02;12.00;76.20
38936;DHT22;25541;47.458;9.644;2022-11-06T12:09:32;12.10;76.20
38936;DHT22;25541;47.458;9.644;2022-11-06T12:12:05;12.10;76.10
38936;DHT22;25541;47.458;9.644;2022-11-06T12:14:34;12.20;75.30
38936;DHT22;25541;47.458;9.644;2022-11-06T12:19:36;12.30;74.80
38936;DHT22;25541;47.458;9.644;2022-11-06T12:22:14;12.20;76.10
38936;DHT22;25541;47.458;9.644;2022-11-06T12:24:52;12.00;76.10
38936;DHT22;25541;47.458;9.644;2022-11-06T12:27:42;12.00;76.30
38936;DHT22;25541;47.458;9.644;2022-11-06T12:30:15;12.10;76.50
38936;DHT22;25541;47.458;9.644;2022-11-06T12:33:20;12.00;76.60
38936;DHT22;25541;47.458;9.644;2022-11-06T12:35:52;11.90;75.90
38936;DHT22;25541;47.458;9.644;2022-11-06T12:38:37;11.80;76.10
38936;DHT22;25541;47.458;9.644;2022-11-06T12:43:45;11.70;76.60
38936;DHT22;25541;47.458;9.644;2022-11-06T12:46:47;11.80;76.60
38936;DHT22;25541;47.458;9.644;2022-11-06T13:00:21;11.60;77.40
38936;DHT22;25541;47.458;9.644;2022-11-06T13:08:52;11.50;78.60
38936;DHT22;25541;47.458;9.644;2022-11-06T13:20:23;11.40;79.40
38936;DHT22;25541;47.458;9.644;2022-11-06T13:22:55;11.40;79.90
38936;DHT22;25541;47.458;9.644;2022-11-06T13:25:49;11.40;79.70
38936;DHT22;25541;47.458;9.644;2022-11-06T13:28:28;11.30;79.80
38936;DHT22;25541;47.458;9.644;2022-11-06T13:30:56;11.30;80.20
38936;DHT22;25541;47.458;9.644;2022-11-06T13:33:29;11.20;79.70
38936;DHT22;25541;47.458;9.644;2022-11-06T13:35:58;11.30;79.80
38936;DHT22;25541;47.458;9.644;2022-11-06T13:38:28;11.30;80.80
38936;DHT22;25541;47.458;9.644;2022-11-06T13:41:01;11.40;80.60
38936;DHT22;25541;47.458;9.644;2022-11-06T13:46:52;11.50;79.70
38936;DHT22;25541;47.458;9.644;2022-11-06T13:49:05;11.60;79.30
38936;DHT22;25541;47.458;9.644;2022-11-06T13:51:48;11.70;79.10
38936;DHT22;25541;47.458;9.644;2022-11-06T14:08:10;11.50;79.40
38936;DHT22;25541;47.458;9.644;2022-11-06T14:10:37;11.50;79.80
38936;DHT22;25541;47.458;9.644;2022-11-06T14:13:13;11.50;80.00
38936;DHT22;25541;47.458;9.644;2022-11-06T14:15:40;11.40;80.50
38936;DHT22;25541;47.458;9.644;2022-11-06T14:18:20;11.40;79.80
38936;DHT22;25541;47.458;9.644;2022-11-06T14:20:47;11.40;80.20
38936;DHT22;25541;47.458;9.644;2022-11-06T14:28:37;11.20;81.30
38936;DHT22;25541;47.458;9.644;2022-11-06T14:31:03;11.10;81.60
38936;DHT22;25541;47.458;9.644;2022-11-06T14:38:48;11.00;82.30
38936;DHT22;25541;47.458;9.644;2022-11-06T14:44:14;11.00;83.30
38936;DHT22;25541;47.458;9.644;2022-11-06T14:46:52;10.90;83.40
38936;DHT22;25541;47.458;9.644;2022-11-06T14:49:38;10.90;83.20
38936;DHT22;25541;47.458;9.644;2022-11-06T14:52:10;10.90;83.10
38936;DHT22;25541;47.458;9.644;2022-11-06T14:54:39;10.90;83.00
38936;DHT22;25541;47.458;9.644;2022-11-06T14:57:08;10.90;83.00
38936;DHT22;25541;47.458;9.644;2022-11-06T14:59:39;10.90;82.80
38936;DHT22;25541;47.458;9.644;2022-11-06T15:04:52;10.90;82.90
38936;DHT22;25541;47.458;9.644;2022-11-06T15:09:58;10.80;83.10
38936;DHT22;25541;47.458;9.644;2022-11-06T15:15:32;10.80;83.30
38936;DHT22;25541;47.458;9.644;2022-11-06T15:17:59;10.80;83.20
38936;DHT22;25541;47.458;9.644;2022-11-06T15:20:29;10.80;82.80
38936;DHT22;25541;47.458;9.644;2022-11-06T15:23:00;10.80;82.80
38936;DHT22;25541;47.458;9.644;2022-11-06T15:25:27;10.90;82.90
38936;DHT22;25541;47.458;9.644;2022-11-06T15:28:14;10.90;82.70
38936;DHT22;25541;47.458;9.644;2022-11-06T15:36:00;10.90;82.80
38936;DHT22;25541;47.458;9.644;2022-11-06T15:38:37;10.80;83.30
38936;DHT22;25541;47.458;9.644;2022-11-06T15:41:05;10.70;83.30
38936;DHT22;25541;47.458;9.644;2022-11-06T15:43:33;10.70;83.60
38936;DHT22;25541;47.458;9.644;2022-11-06T15:48:28;10.60;83.80
38936;DHT22;25541;47.458;9.644;2022-11-06T15:50:54;10.50;84.20
38936;DHT22;25541;47.458;9.644;2022-11-06T15:53:22;10.40;84.60
38936;DHT22;25541;47.458;9.644;2022-11-06T15:55:59;10.30;84.90
38936;DHT22;25541;47.458;9.644;2022-11-06T16:00:51;10.20;85.50
38936;DHT22;25541;47.458;9.644;2022-11-06T16:03:20;10.10;85.80
38936;DHT22;25541;47.458;9.644;2022-11-06T16:05:46;10.00;86.00
38936;DHT22;25541;47.458;9.644;2022-11-06T16:08:14;9.90;86.70
38936;DHT22;25541;47.458;9.644;2022-11-06T16:10:41;9.70;87.90
38936;DHT22;25541;47.458;9.644;2022-11-06T16:13:14;9.60;88.30
38936;DHT22;25541;47.458;9.644;2022-11-06T16:26:08;9.20;90.70
38936;DHT22;25541;47.458;9.644;2022-11-06T16:28:34;9.20;90.90
38936;DHT22;25541;47.458;9.644;2022-11-06T16:31:14;9.10;91.30
38936;DHT22;25541;47.458;9.644;2022-11-06T16:33:40;9.10;91.40
38936;DHT22;25541;47.458;9.644;2022-11-06T16:36:17;9.10;91.60
38936;DHT22;25541;47.458;9.644;2022-11-06T16:38:43;8.90;92.00
38936;DHT22;25541;47.458;9.644;2022-11-06T16:41:11;8.80;92.20
38936;DHT22;25541;47.458;9.644;2022-11-06T16:43:37;8.70;92.70
38936;DHT22;25541;47.458;9.644;2022-11-06T16:46:05;8.70;92.90
38936;DHT22;25541;47.458;9.644;2022-11-06T16:48:41;8.70;92.70
38936;DHT22;25541;47.458;9.644;2022-11-06T16:51:13;8.80;92.90
38936;DHT22;25541;47.458;9.644;2022-11-06T16:53:52;8.70;92.90
38936;DHT22;25541;47.458;9.644;2022-11-06T16:56:29;8.80;93.10
38936;DHT22;25541;47.458;9.644;2022-11-06T16:59:01;8.70;93.20
38936;DHT22;25541;47.458;9.644;2022-11-06T17:01:36;8.70;93.40
38936;DHT22;25541;47.458;9.644;2022-11-06T17:04:02;8.70;93.80
38936;DHT22;25541;47.458;9.644;2022-11-06T17:06:31;8.60;93.60
38936;DHT22;25541;47.458;9.644;2022-11-06T17:09:03;8.60;93.70
38936;DHT22;25541;47.458;9.644;2022-11-06T17:11:29;8.60;93.60
38936;DHT22;25541;47.458;9.644;2022-11-06T17:13:54;8.70;93.80
38936;DHT22;25541;47.458;9.644;2022-11-06T17:16:23;8.80;93.90
38936;DHT22;25541;47.458;9.644;2022-11-06T17:18:50;8.90;94.00
38936;DHT22;25541;47.458;9.644;2022-11-06T17:21:25;8.90;94.20
38936;DHT22;25541;47.458;9.644;2022-11-06T17:23:52;8.90;94.20
38936;DHT22;25541;47.458;9.644;2022-11-06T17:28:43;9.00;94.30
38936;DHT22;25541;47.458;9.644;2022-11-06T17:31:10;9.10;94.40
38936;DHT22;25541;47.458;9.644;2022-11-06T17:33:37;9.10;94.30
38936;DHT22;25541;47.458;9.644;2022-11-06T17:36:03;9.10;94.30
38936;DHT22;25541;47.458;9.644;2022-11-06T17:38:29;9.10;94.40
38936;DHT22;25541;47.458;9.644;2022-11-06T17:40:55;9.10;94.40
38936;DHT22;25541;47.458;9.644;2022-11-06T17:43:21;9.10;94.40
38936;DHT22;25541;47.458;9.644;2022-11-06T17:45:46;9.10;94.60
38936;DHT22;25541;47.458;9.644;2022-11-06T17:48:14;9.20;94.50
38936;DHT22;25541;47.458;9.644;2022-11-06T17:50:40;9.20;94.60
38936;DHT22;25541;47.458;9.644;2022-11-06T17:53:25;9.20;94.50
38936;DHT22;25541;47.458;9.644;2022-11-06T17:55:50;9.20;94.10
38936;DHT22;25541;47.458;9.644;2022-11-06T17:58:17;9.20;93.90
38936;DHT22;25541;47.458;9.644;2022-11-06T18:00:42;9.30;93.90
38936;DHT22;25541;47.458;9.644;2022-11-06T18:03:15;9.30;94.00
38936;DHT22;25541;47.458;9.644;2022-11-06T18:05:42;9.30;94.00
38936;DHT22;25541;47.458;9.644;2022-11-06T18:08:10;9.30;94.00
38936;DHT22;25541;47.458;9.644;2022-11-06T18:10:36;9.30;93.90
38936;DHT22;25541;47.458;9.644;2022-11-06T18:13:03;9.30;93.70
38936;DHT22;25541;47.458;9.644;2022-11-06T18:15:32;9.30;93.90
38936;DHT22;25541;47.458;9.644;2022-11-06T18:17:58;9.30;93.90
38936;DHT22;25541;47.458;9.644;2022-11-06T18:20:24;9.20;94.00
38936;DHT22;25541;47.458;9.644;2022-11-06T18:22:50;9.30;94.10
38936;DHT22;25541;47.458;9.644;2022-11-06T18:25:15;9.20;94.10
38936;DHT22;25541;47.458;9.644;2022-11-06T18:27:41;9.20;94.00
38936;DHT22;25541;47.458;9.644;2022-11-06T18:30:07;9.20;94.10
38936;DHT22;25541;47.458;9.644;2022-11-06T18:32:33;9.20;94.00
38936;DHT22;25541;47.458;9.644;2022-11-06T18:34:58;9.20;94.20
38936;DHT22;25541;47.458;9.644;2022-11-06T18:37:25;9.20;93.90
38936;DHT22;25541;47.458;9.644;2022-11-06T18:39:51;9.20;94.00
38936;DHT22;25541;47.458;9.644;2022-11-06T18:42:16;9.20;94.00
38936;DHT22;25541;47.458;9.644;2022-11-06T18:44:42;9.10;94.20
38936;DHT22;25541;47.458;9.644;2022-11-06T18:47:07;9.20;94.30
38936;DHT22;25541;47.458;9.644;2022-11-06T18:49:33;9.10;94.40
38936;DHT22;25541;47.458;9.644;2022-11-06T18:51:59;9.10;94.50
38936;DHT22;25541;47.458;9.644;2022-11-06T18:54:27;9.00;94.80
38936;DHT22;25541;47.458;9.644;2022-11-06T18:56:53;9.00;95.10
38936;DHT22;25541;47.458;9.644;2022-11-06T18:59:19;9.00;95.30
38936;DHT22;25541;47.458;9.644;2022-11-06T19:01:45;9.00;95.40
38936;DHT22;25541;47.458;9.644;2022-11-06T19:04:11;8.90;95.20
38936;DHT22;25541;47.458;9.644;2022-11-06T19:06:37;8.90;95.30
38936;DHT22;25541;47.458;9.644;2022-11-06T19:09:06;8.90;95.60
38936;DHT22;25541;47.458;9.644;2022-11-06T19:11:32;9.00;95.40
38936;DHT22;25541;47.458;9.644;2022-11-06T19:13:58;9.10;95.30
38936;DHT22;25541;47.458;9.644;2022-11-06T19:16:23;9.10;95.30
38936;DHT22;25541;47.458;9.644;2022-11-06T19:18:49;9.10;95.40
38936;DHT22;25541;47.458;9.644;2022-11-06T19:21:15;9.10;95.40
38936;DHT22;25541;47.458;9.644;2022-11-06T19:23:42;9.20;95.70
38936;DHT22;25541;47.458;9.644;2022-11-06T19:26:15;9.20;95.40
38936;DHT22;25541;47.458;9.644;2022-11-06T19:28:42;9.20;95.10
38936;DHT22;25541;47.458;9.644;2022-11-06T19:31:08;9.20;95.60
38936;DHT22;25541;47.458;9.644;2022-11-06T19:33:33;9.20;95.20
38936;DHT22;25541;47.458;9.644;2022-11-06T19:36:00;9.30;95.10
38936;DHT22;25541;47.458;9.644;2022-11-06T19:38:27;9.30;94.90
38936;DHT22;25541;47.458;9.644;2022-11-06T19:40:54;9.30;94.70
38936;DHT22;25541;47.458;9.644;2022-11-06T19:43:20;9.40;94.60
38936;DHT22;25541;47.458;9.644;2022-11-06T19:45:45;9.40;94.50
38936;DHT22;25541;47.458;9.644;2022-11-06T19:48:11;9.40;94.40
38936;DHT22;25541;47.458;9.644;2022-11-06T19:50:37;9.40;94.60
38936;DHT22;25541;47.458;9.644;2022-11-06T19:53:02;9.40;94.50
38936;DHT22;25541;47.458;9.644;2022-11-06T19:55:28;9.40;94.70
38936;DHT22;25541;47.458;9.644;2022-11-06T19:57:56;9.40;94.70
38936;DHT22;25541;47.458;9.644;2022-11-06T20:00:22;9.40;94.70
38936;DHT22;25541;47.458;9.644;2022-11-06T20:02:48;9.40;94.90
38936;DHT22;25541;47.458;9.644;2022-11-06T20:05:15;9.30;96.80
38936;DHT22;25541;47.458;9.644;2022-11-06T20:07:40;9.40;95.50
38936;DHT22;25541;47.458;9.644;2022-11-06T20:10:07;9.40;95.50
38936;DHT22;25541;47.458;9.644;2022-11-06T20:12:33;9.40;95.40
38936;DHT22;25541;47.458;9.644;2022-11-06T20:14:59;9.40;95.30
38936;DHT22;25541;47.458;9.644;2022-11-06T20:17:24;9.40;95.20
38936;DHT22;25541;47.458;9.644;2022-11-06T20:19:50;9.40;95.20
38936;DHT22;25541;47.458;9.644;2022-11-06T20:22:16;9.40;95.40
38936;DHT22;25541;47.458;9.644;2022-11-06T20:24:41;9.40;95.40
38936;DHT22;25541;47.458;9.644;2022-11-06T20:27:07;9.40;95.30
38936;DHT22;25541;47.458;9.644;2022-11-06T20:29:32;9.40;95.20
38936;DHT22;25541;47.458;9.644;2022-11-06T20:31:58;9.40;95.20
38936;DHT22;25541;47.458;9.644;2022-11-06T20:34:24;9.40;95.00
38936;DHT22;25541;47.458;9.644;2022-11-06T20:36:49;9.40;95.40
38936;DHT22;25541;47.458;9.644;2022-11-06T20:39:15;9.40;95.70
38936;DHT22;25541;47.458;9.644;2022-11-06T20:41:41;9.40;96.00
38936;DHT22;25541;47.458;9.644;2022-11-06T20:44:07;9.50;95.70
38936;DHT22;25541;47.458;9.644;2022-11-06T20:46:32;9.40;95.90
38936;DHT22;25541;47.458;9.644;2022-11-06T20:48:58;9.40;96.00
38936;DHT22;25541;47.458;9.644;2022-11-06T20:51:25;9.50;95.80
38936;DHT22;25541;47.458;9.644;2022-11-06T20:53:52;9.60;95.50
38936;DHT22;25541;47.458;9.644;2022-11-06T20:56:21;9.60;95.60
38936;DHT22;25541;47.458;9.644;2022-11-06T20:58:47;9.60;95.40
38936;DHT22;25541;47.458;9.644;2022-11-06T21:01:16;9.60;95.30
38936;DHT22;25541;47.458;9.644;2022-11-06T21:03:43;9.60;95.20
38936;DHT22;25541;47.458;9.644;2022-11-06T21:06:09;9.60;95.10
38936;DHT22;25541;47.458;9.644;2022-11-06T21:08:36;9.60;95.30
38936;DHT22;25541;47.458;9.644;2022-11-06T21:11:08;9.60;95.30
38936;DHT22;25541;47.458;9.644;2022-11-06T21:13:41;9.60;95.30
38936;DHT22;25541;47.458;9.644;2022-11-06T21:16:19;9.70;95.60
38936;DHT22;25541;47.458;9.644;2022-11-06T21:18:45;9.70;95.60
38936;DHT22;25541;47.458;9.644;2022-11-06T21:21:13;9.70;95.60
38936;DHT22;25541;47.458;9.644;2022-11-06T21:23:39;9.70;95.60
38936;DHT22;25541;47.458;9.644;2022-11-06T21:26:08;9.70;95.70
38936;DHT22;25541;47.458;9.644;2022-11-06T21:28:35;9.70;95.60
38936;DHT22;25541;47.458;9.644;2022-11-06T21:31:01;9.70;95.70
38936;DHT22;25541;47.458;9.644;2022-11-06T21:33:27;9.70;95.70
38936;DHT22;25541;47.458;9.644;2022-11-06T21:35:56;9.70;95.70
38936;DHT22;25541;47.458;9.644;2022-11-06T21:38:28;9.70;95.60
38936;DHT22;25541;47.458;9.644;2022-11-06T21:40:53;9.80;95.70
38936;DHT22;25541;47.458;9.644;2022-11-06T21:43:19;9.70;95.60
38936;DHT22;25541;47.458;9.644;2022-11-06T21:45:45;9.70;96.00
38936;DHT22;25541;47.458;9.644;2022-11-06T21:48:10;9.70;95.90
38936;DHT22;25541;47.458;9.644;2022-11-06T21:50:38;9.70;95.80
38936;DHT22;25541;47.458;9.644;2022-11-06T21:53:03;9.80;95.80
38936;DHT22;25541;47.458;9.644;2022-11-06T21:55:47;9.80;96.10
38936;DHT22;25541;47.458;9.644;2022-11-06T21:58:26;9.70;96.00
38936;DHT22;25541;47.458;9.644;2022-11-06T22:00:52;9.80;96.20
38936;DHT22;25541;47.458;9.644;2022-11-06T22:03:18;9.80;96.50
38936;DHT22;25541;47.458;9.644;2022-11-06T22:05:43;9.80;96.50
38936;DHT22;25541;47.458;9.644;2022-11-06T22:08:09;9.80;96.60
38936;DHT22;25541;47.458;9.644;2022-11-06T22:10:35;9.70;96.50
38936;DHT22;25541;47.458;9.644;2022-11-06T22:13:01;9.70;96.30
38936;DHT22;25541;47.458;9.644;2022-11-06T22:15:26;9.70;96.90
38936;DHT22;25541;47.458;9.644;2022-11-06T22:17:53;9.70;96.50
38936;DHT22;25541;47.458;9.644;2022-11-06T22:20:19;9.80;96.30
38936;DHT22;25541;47.458;9.644;2022-11-06T22:22:45;9.80;95.70
38936;DHT22;25541;47.458;9.644;2022-11-06T22:25:10;9.90;95.50
38936;DHT22;25541;47.458;9.644;2022-11-06T22:27:36;9.90;94.60
38936;DHT22;25541;47.458;9.644;2022-11-06T22:30:03;9.90;94.60
38936;DHT22;25541;47.458;9.644;2022-11-06T22:32:28;9.80;94.20
38936;DHT22;25541;47.458;9.644;2022-11-06T22:34:54;9.70;94.70
38936;DHT22;25541;47.458;9.644;2022-11-06T22:37:20;9.60;95.30
38936;DHT22;25541;47.458;9.644;2022-11-06T22:39:48;9.50;95.80
38936;DHT22;25541;47.458;9.644;2022-11-06T22:42:14;9.40;95.80
38936;DHT22;25541;47.458;9.644;2022-11-06T22:44:40;9.40;96.20
38936;DHT22;25541;47.458;9.644;2022-11-06T22:47:05;9.50;95.80
38936;DHT22;25541;47.458;9.644;2022-11-06T22:49:31;9.50;95.90
38936;DHT22;25541;47.458;9.644;2022-11-06T22:51:57;9.60;95.40
38936;DHT22;25541;47.458;9.644;2022-11-06T22:54:23;9.60;95.00